Time;durP1;ratioP1;P1;durP2;ratioP2;P2;SDS_P1;SDS_P2;PMS_P1;PMS_P2;Temp;Humidity;BMP_temperature;BMP_pressure;BME280_temperature;BME280_humidity;BME280_pressure;Samples;Min_cycle;Max_cycle;Signal;HPM_P1;HPM_P2
2022/08/22 00:01:55;;;;;;;2.50;1.40;;;;;;;;;;765231;183;625161;-55
2022/08/22 00:04:21;;;;;;;4.00;1.30;;;;;;;;;;767106;182;629023;-55
2022/08/22 00:06:53;;;;;;;4.77;1.23;;;;;;;;;;766056;182;625243;-55
2022/08/22 00:09:28;;;;;;;2.10;1.33;;;;;;;;;;764342;182;626814;-55
2022/08/22 00:11:52;;;;;;;2.87;1.33;;;;;;;;;;763628;182;637015;-55
2022/08/22 00:14:19;;;;;;;3.40;1.17;;;;;;;;;;768687;182;617932;-56
2022/08/22 00:16:50;;;;;;;2.77;1.40;;;;;;;;;;766055;183;621075;-55
2022/08/22 00:19:31;;;;;;;2.20;1.20;;;;;;;;;;755925;183;626521;-57
2022/08/22 00:22:01;;;;;;;2.70;1.60;;;;;;;;;;765271;182;634848;-54
2022/08/22 00:24:28;;;;;;;6.90;1.70;;;;;;;;;;753304;182;627307;-56
2022/08/22 00:26:55;;;;;;;2.60;1.47;;;;;;;;;;761949;182;627144;-55
2022/08/22 00:29:21;;;;;;;2.10;1.17;;;;;;;;;;773134;182;620268;-55
2022/08/22 00:31:47;;;;;;;4.87;2.63;;;;;;;;;;765347;182;634044;-55
2022/08/22 00:34:15;;;;;;;2.30;1.40;;;;;;;;;;767194;181;621487;-56
2022/08/22 00:36:44;;;;;;;2.80;1.80;;;;;;;;;;767845;182;618959;-56
2022/08/22 00:39:10;;;;;;;3.97;1.50;;;;;;;;;;763935;182;626805;-55
2022/08/22 00:41:36;;;;;;;2.10;1.23;;;;;;;;;;762533;182;632256;-56
2022/08/22 00:44:06;;;;;;;2.50;1.50;;;;;;;;;;767709;182;629875;-55
2022/08/22 00:46:37;;;;;;;2.67;1.60;;;;;;;;;;766914;182;633518;-55
2022/08/22 00:49:10;;;;;;;3.00;1.50;;;;;;;;;;760315;183;618742;-56
2022/08/22 00:51:41;;;;;;;2.83;1.33;;;;;;;;;;762650;182;619076;-56
2022/08/22 00:54:15;;;;;;;2.10;1.50;;;;;;;;;;754724;185;614847;-55
2022/08/22 00:56:45;;;;;;;2.10;1.40;;;;;;;;;;760415;182;619202;-55
2022/08/22 00:59:10;;;;;;;1.97;1.23;;;;;;;;;;771329;182;626198;-55
2022/08/22 01:01:36;;;;;;;2.70;1.33;;;;;;;;;;764140;182;636881;-55
2022/08/22 01:04:06;;;;;;;2.20;1.30;;;;;;;;;;768387;183;635940;-56
2022/08/22 01:06:38;;;;;;;6.90;1.80;;;;;;;;;;766563;182;617238;-56
2022/08/22 01:09:03;;;;;;;3.10;1.30;;;;;;;;;;766032;182;627236;-55
2022/08/22 01:11:29;;;;;;;4.23;2.20;;;;;;;;;;763849;182;620876;-55
2022/08/22 01:14:01;;;;;;;2.83;1.80;;;;;;;;;;766481;182;625455;-55
2022/08/22 01:16:27;;;;;;;3.60;2.67;;;;;;;;;;760450;183;618837;-56
2022/08/22 01:18:55;;;;;;;2.60;1.87;;;;;;;;;;766578;183;618003;-55
2022/08/22 01:21:27;;;;;;;2.83;1.90;;;;;;;;;;757372;185;613768;-55
2022/08/22 01:23:58;;;;;;;2.83;1.93;;;;;;;;;;762738;182;626050;-54
2022/08/22 01:26:25;;;;;;;2.50;1.63;;;;;;;;;;767992;182;634844;-54
2022/08/22 01:29:01;;;;;;;2.40;1.30;;;;;;;;;;769422;182;620006;-54
2022/08/22 01:31:37;;;;;;;2.60;1.60;;;;;;;;;;769224;182;624516;-54
2022/08/22 01:34:03;;;;;;;2.47;1.77;;;;;;;;;;768606;183;615948;-54
2022/08/22 01:36:33;;;;;;;2.20;1.30;;;;;;;;;;767997;183;617899;-54
2022/08/22 01:38:59;;;;;;;2.17;1.30;;;;;;;;;;755286;183;622829;-54
2022/08/22 01:41:26;;;;;;;3.50;1.70;;;;;;;;;;771631;182;617206;-54
2022/08/22 01:44:07;;;;;;;3.57;1.73;;;;;;;;;;768014;183;622364;-55
2022/08/22 01:46:36;;;;;;;3.43;1.50;;;;;;;;;;765975;183;619008;-54
2022/08/22 01:49:03;;;;;;;2.37;1.33;;;;;;;;;;771785;182;623074;-54
2022/08/22 01:51:28;;;;;;;2.73;1.50;;;;;;;;;;772386;182;618807;-54
2022/08/22 01:53:56;;;;;;;2.57;1.40;;;;;;;;;;765032;182;626397;-54
2022/08/22 01:56:21;;;;;;;5.40;1.80;;;;;;;;;;769519;182;628981;-54
2022/08/22 01:58:54;;;;;;;2.10;1.37;;;;;;;;;;765287;182;619212;-54
2022/08/22 02:01:19;;;;;;;4.77;1.37;;;;;;;;;;763891;182;616999;-54
2022/08/22 02:03:53;;;;;;;2.60;1.40;;;;;;;;;;766148;182;635606;-54
2022/08/22 02:06:21;;;;;;;1.90;1.10;;;;;;;;;;765309;182;628183;-54
2022/08/22 02:09:03;;;;;;;2.23;1.53;;;;;;;;;;766442;183;633152;-55
2022/08/22 02:11:31;;;;;;;1.80;1.10;;;;;;;;;;752821;185;626394;-54
2022/08/22 02:13:56;;;;;;;2.00;1.20;;;;;;;;;;770068;182;623347;-54
2022/08/22 02:16:38;;;;;;;6.17;1.47;;;;;;;;;;767036;182;620359;-55
2022/08/22 02:19:05;;;;;;;3.30;1.27;;;;;;;;;;768084;182;619281;-55
2022/08/22 02:21:46;;;;;;;2.33;1.40;;;;;;;;;;768616;182;616634;-56
2022/08/22 02:24:25;;;;;;;2.63;1.40;;;;;;;;;;762079;183;639935;-53
2022/08/22 02:27:01;;;;;;;2.37;1.53;;;;;;;;;;765903;182;626651;-55
2022/08/22 02:29:23;;;;;;;2.50;1.33;;;;;;;;;;767809;182;630008;-54
2022/08/22 02:31:53;;;;;;;2.63;1.30;;;;;;;;;;765562;183;618286;-54
2022/08/22 02:34:34;;;;;;;2.70;1.60;;;;;;;;;;763910;182;626935;-54
2022/08/22 02:37:02;;;;;;;2.20;1.40;;;;;;;;;;755384;183;637142;-55
2022/08/22 02:39:31;;;;;;;2.00;1.30;;;;;;;;;;760175;183;630314;-54
2022/08/22 02:41:57;;;;;;;2.50;1.30;;;;;;;;;;768771;183;614733;-54
2022/08/22 02:44:23;;;;;;;1.90;1.07;;;;;;;;;;768791;182;618428;-54
2022/08/22 02:46:53;;;;;;;3.87;1.43;;;;;;;;;;761117;182;619084;-53
2022/08/22 02:49:23;;;;;;;2.40;1.40;;;;;;;;;;766327;182;621162;-54
2022/08/22 02:51:52;;;;;;;2.97;1.53;;;;;;;;;;770545;182;623850;-54
2022/08/22 02:54:28;;;;;;;3.17;1.40;;;;;;;;;;759058;183;624354;-54
2022/08/22 02:56:59;;;;;;;2.70;1.30;;;;;;;;;;765941;183;626138;-55
2022/08/22 02:59:29;;;;;;;2.10;1.10;;;;;;;;;;762070;182;619976;-53
2022/08/22 03:01:54;;;;;;;2.30;1.47;;;;;;;;;;768511;182;624011;-54
2022/08/22 03:04:23;;;;;;;2.30;1.40;;;;;;;;;;773329;182;625014;-54
2022/08/22 03:06:54;;;;;;;3.20;1.67;;;;;;;;;;770820;182;626215;-53
2022/08/22 03:09:21;;;;;;;2.73;1.43;;;;;;;;;;770635;182;619182;-54
2022/08/22 03:11:48;;;;;;;3.00;1.47;;;;;;;;;;766237;182;616716;-54
2022/08/22 03:14:29;;;;;;;2.53;1.73;;;;;;;;;;771634;182;628912;-55
2022/08/22 03:16:54;;;;;;;2.10;1.13;;;;;;;;;;771081;183;618466;-54
2022/08/22 03:19:21;;;;;;;2.17;1.33;;;;;;;;;;766539;182;636633;-55
2022/08/22 03:21:47;;;;;;;2.50;1.40;;;;;;;;;;765729;182;618456;-54
2022/08/22 03:24:14;;;;;;;4.80;1.30;;;;;;;;;;769462;182;619350;-54
2022/08/22 03:26:41;;;;;;;2.67;1.50;;;;;;;;;;758155;186;624566;-55
2022/08/22 03:29:08;;;;;;;4.23;1.93;;;;;;;;;;768708;182;616902;-54
2022/08/22 03:31:34;;;;;;;2.30;1.33;;;;;;;;;;765112;182;624627;-54
2022/08/22 03:34:05;;;;;;;2.87;1.63;;;;;;;;;;762709;184;616961;-54
2022/08/22 03:36:31;;;;;;;1.93;1.20;;;;;;;;;;766184;182;615342;-55
2022/08/22 03:39:03;;;;;;;2.17;1.37;;;;;;;;;;766987;182;618307;-54
2022/08/22 03:41:33;;;;;;;2.57;1.33;;;;;;;;;;762090;182;616469;-55
2022/08/22 03:44:04;;;;;;;2.50;1.30;;;;;;;;;;762501;183;635091;-55
2022/08/22 03:46:36;;;;;;;2.20;1.43;;;;;;;;;;764417;183;625247;-54
2022/08/22 03:49:17;;;;;;;2.30;1.67;;;;;;;;;;763893;182;622904;-55
2022/08/22 03:51:57;;;;;;;3.23;1.20;;;;;;;;;;757232;183;623983;-55
2022/08/22 03:54:39;;;;;;;2.10;1.40;;;;;;;;;;760195;183;630450;-55
2022/08/22 03:57:11;;;;;;;4.00;2.20;;;;;;;;;;764270;182;630091;-54
2022/08/22 03:59:42;;;;;;;2.67;1.20;;;;;;;;;;766646;182;626246;-55
2022/08/22 04:02:16;;;;;;;2.33;1.30;;;;;;;;;;769579;182;613950;-54
2022/08/22 04:04:44;;;;;;;2.23;1.37;;;;;;;;;;769694;183;608048;-55
2022/08/22 04:07:16;;;;;;;2.83;1.50;;;;;;;;;;762987;182;631259;-55
2022/08/22 04:09:42;;;;;;;2.93;1.53;;;;;;;;;;758809;182;618206;-54
2022/08/22 04:12:27;;;;;;;3.30;1.50;;;;;;;;;;760830;182;614201;-56
2022/08/22 04:15:13;;;;;;;3.43;1.37;;;;;;;;;;754681;184;615918;-56
2022/08/22 04:17:42;;;;;;;2.77;1.70;;;;;;;;;;765971;182;628972;-54
2022/08/22 04:20:25;;;;;;;2.80;1.63;;;;;;;;;;773596;182;624719;-56
2022/08/22 04:22:57;;;;;;;2.30;1.50;;;;;;;;;;764472;182;631594;-55
2022/08/22 04:25:22;;;;;;;4.17;1.60;;;;;;;;;;766566;183;619036;-55
2022/08/22 04:27:48;;;;;;;3.57;1.53;;;;;;;;;;765069;182;629329;-54
2022/08/22 04:30:16;;;;;;;3.10;1.70;;;;;;;;;;767924;182;627031;-55
2022/08/22 04:32:42;;;;;;;2.63;1.50;;;;;;;;;;769392;183;622342;-55
2022/08/22 04:35:20;;;;;;;1.93;1.27;;;;;;;;;;763417;183;629386;-55
2022/08/22 04:37:49;;;;;;;2.20;1.37;;;;;;;;;;761392;182;618765;-54
2022/08/22 04:40:30;;;;;;;3.10;1.87;;;;;;;;;;768168;182;617872;-54
2022/08/22 04:42:56;;;;;;;2.80;2.10;;;;;;;;;;763257;182;618904;-55
2022/08/22 04:45:21;;;;;;;2.40;1.50;;;;;;;;;;762745;182;624222;-54
2022/08/22 04:47:48;;;;;;;2.33;1.57;;;;;;;;;;769064;182;616184;-54
2022/08/22 04:50:15;;;;;;;4.73;1.57;;;;;;;;;;760229;183;617204;-54
2022/08/22 04:52:45;;;;;;;2.90;1.50;;;;;;;;;;766925;182;627059;-55
2022/08/22 04:55:24;;;;;;;3.13;1.53;;;;;;;;;;767224;182;631021;-54
2022/08/22 04:57:50;;;;;;;2.70;1.70;;;;;;;;;;773957;182;614031;-54
2022/08/22 05:00:16;;;;;;;2.73;1.33;;;;;;;;;;763188;183;617204;-54
2022/08/22 05:02:43;;;;;;;2.60;1.90;;;;;;;;;;760682;183;634377;-54
2022/08/22 05:05:08;;;;;;;2.50;1.47;;;;;;;;;;771221;182;628858;-54
2022/08/22 05:07:34;;;;;;;5.50;1.40;;;;;;;;;;768673;182;616127;-55
2022/08/22 05:10:01;;;;;;;2.17;1.37;;;;;;;;;;767981;182;623623;-55
2022/08/22 05:12:27;;;;;;;3.00;1.50;;;;;;;;;;769792;183;615054;-55
2022/08/22 05:14:53;;;;;;;2.00;1.10;;;;;;;;;;768515;182;613823;-55
2022/08/22 05:17:20;;;;;;;4.67;1.70;;;;;;;;;;766934;182;625906;-55
2022/08/22 05:19:45;;;;;;;2.30;1.60;;;;;;;;;;765614;183;634343;-55
2022/08/22 05:22:11;;;;;;;3.60;1.90;;;;;;;;;;765365;180;616648;-54
2022/08/22 05:24:36;;;;;;;3.00;1.80;;;;;;;;;;768821;182;636672;-55
2022/08/22 05:27:03;;;;;;;2.30;1.50;;;;;;;;;;766233;182;617142;-55
2022/08/22 05:29:29;;;;;;;4.43;2.73;;;;;;;;;;771456;182;620728;-54
2022/08/22 05:31:56;;;;;;;3.00;1.87;;;;;;;;;;765702;182;624791;-54
2022/08/22 05:34:21;;;;;;;5.27;1.70;;;;;;;;;;764683;182;623971;-54
2022/08/22 05:36:49;;;;;;;3.03;1.70;;;;;;;;;;771506;182;622556;-54
2022/08/22 05:39:17;;;;;;;2.20;1.40;;;;;;;;;;764846;182;640109;-54
2022/08/22 05:41:43;;;;;;;2.63;1.30;;;;;;;;;;767659;183;620880;-54
2022/08/22 05:44:23;;;;;;;2.23;1.60;;;;;;;;;;767283;182;630249;-54
2022/08/22 05:46:49;;;;;;;3.10;1.53;;;;;;;;;;763797;182;633215;-55
2022/08/22 05:49:17;;;;;;;2.30;1.40;;;;;;;;;;770980;182;628718;-54
2022/08/22 05:51:45;;;;;;;2.83;1.60;;;;;;;;;;766212;182;624774;-55
2022/08/22 05:54:12;;;;;;;2.20;1.30;;;;;;;;;;764410;182;614579;-54
2022/08/22 05:56:38;;;;;;;2.13;1.20;;;;;;;;;;767738;182;633254;-53
2022/08/22 05:59:04;;;;;;;2.53;1.40;;;;;;;;;;765857;183;631210;-54
2022/08/22 06:01:31;;;;;;;3.03;1.10;;;;;;;;;;766728;182;633051;-55
2022/08/22 06:03:58;;;;;;;2.07;1.13;;;;;;;;;;764485;182;631801;-54
2022/08/22 06:06:24;;;;;;;1.90;1.17;;;;;;;;;;768250;182;623818;-54
2022/08/22 06:08:56;;;;;;;3.37;1.70;;;;;;;;;;765546;182;636016;-55
2022/08/22 06:11:27;;;;;;;2.03;1.10;;;;;;;;;;766045;182;628681;-54
2022/08/22 06:13:52;;;;;;;2.07;1.20;;;;;;;;;;766525;182;623501;-54
2022/08/22 06:16:20;;;;;;;2.70;1.30;;;;;;;;;;770865;182;621983;-54
2022/08/22 06:18:45;;;;;;;1.90;1.30;;;;;;;;;;764624;182;619243;-54
2022/08/22 06:21:11;;;;;;;1.90;1.10;;;;;;;;;;765487;182;632225;-54
2022/08/22 06:23:46;;;;;;;3.30;1.30;;;;;;;;;;770910;182;616727;-54
2022/08/22 06:26:12;;;;;;;1.83;1.10;;;;;;;;;;766073;183;624014;-53
2022/08/22 06:28:39;;;;;;;2.10;1.30;;;;;;;;;;765527;182;618693;-54
2022/08/22 06:31:05;;;;;;;2.30;1.30;;;;;;;;;;763537;182;620120;-54
2022/08/22 06:33:30;;;;;;;1.93;1.00;;;;;;;;;;773119;180;616151;-55
2022/08/22 06:38:32;;;;;;;2.10;1.20;;;;;;;;;;769573;182;628374;-53
2022/08/22 06:40:55;;;;;;;2.30;1.20;;;;;;;;;;762844;182;616659;-54
2022/08/22 06:43:21;;;;;;;2.20;0.90;;;;;;;;;;769645;182;624536;-53
2022/08/22 06:45:47;;;;;;;2.67;1.10;;;;;;;;;;768803;182;618419;-54
2022/08/22 06:48:14;;;;;;;2.40;1.33;;;;;;;;;;764060;182;627204;-53
2022/08/22 06:50:40;;;;;;;3.20;1.40;;;;;;;;;;771078;182;626997;-53
2022/08/22 06:53:06;;;;;;;2.40;1.17;;;;;;;;;;767400;182;614726;-53
2022/08/22 06:55:32;;;;;;;2.40;1.50;;;;;;;;;;766407;182;629854;-53
2022/08/22 06:58:03;;;;;;;2.63;1.20;;;;;;;;;;765893;182;629228;-55
2022/08/22 07:00:29;;;;;;;1.80;1.00;;;;;;;;;;760455;186;616643;-53
2022/08/22 07:02:56;;;;;;;3.37;1.97;;;;;;;;;;765757;182;642177;-53
2022/08/22 07:05:22;;;;;;;2.23;1.37;;;;;;;;;;767121;182;626103;-54
2022/08/22 07:07:48;;;;;;;2.50;1.50;;;;;;;;;;765879;182;634057;-54
2022/08/22 07:10:14;;;;;;;1.97;1.10;;;;;;;;;;766818;182;627132;-53
2022/08/22 07:12:40;;;;;;;2.10;1.23;;;;;;;;;;766193;182;641738;-53
2022/08/22 07:15:08;;;;;;;3.10;1.53;;;;;;;;;;764194;182;629170;-54
2022/08/22 07:17:34;;;;;;;2.70;1.60;;;;;;;;;;770323;182;626633;-54
2022/08/22 07:20:06;;;;;;;3.10;1.53;;;;;;;;;;765127;182;626904;-54
2022/08/22 07:22:31;;;;;;;2.40;1.57;;;;;;;;;;766041;182;634939;-53
2022/08/22 07:24:58;;;;;;;2.50;1.47;;;;;;;;;;767856;182;628016;-53
2022/08/22 07:27:30;;;;;;;3.07;1.20;;;;;;;;;;769871;182;627596;-53
2022/08/22 07:29:59;;;;;;;2.40;1.20;;;;;;;;;;764950;182;624557;-54
2022/08/22 07:32:24;;;;;;;2.30;1.10;;;;;;;;;;764213;182;628997;-53
2022/08/22 07:34:51;;;;;;;4.33;1.40;;;;;;;;;;768166;182;625785;-53
2022/08/22 07:37:19;;;;;;;2.53;1.50;;;;;;;;;;759103;186;726624;-53
2022/08/22 07:39:47;;;;;;;4.33;1.10;;;;;;;;;;764406;182;628130;-54
2022/08/22 07:42:13;;;;;;;2.67;1.33;;;;;;;;;;765964;182;626800;-54
2022/08/22 07:44:40;;;;;;;3.47;1.50;;;;;;;;;;771786;180;623895;-53
2022/08/22 07:47:06;;;;;;;2.80;1.60;;;;;;;;;;766089;182;628351;-54
2022/08/22 07:49:32;;;;;;;4.30;1.53;;;;;;;;;;767375;182;619303;-53
2022/08/22 07:51:57;;;;;;;2.20;1.20;;;;;;;;;;770126;182;635751;-54
2022/08/22 07:54:23;;;;;;;1.90;1.10;;;;;;;;;;767078;182;627631;-53
2022/08/22 07:56:50;;;;;;;3.33;2.00;;;;;;;;;;767100;182;617024;-55
2022/08/22 07:59:16;;;;;;;3.13;1.73;;;;;;;;;;764947;182;625337;-54
2022/08/22 08:01:42;;;;;;;5.23;1.97;;;;;;;;;;769256;182;630566;-53
2022/08/22 08:04:08;;;;;;;2.90;1.40;;;;;;;;;;765376;182;626859;-53
2022/08/22 08:06:34;;;;;;;5.00;1.90;;;;;;;;;;763907;182;626889;-53
2022/08/22 08:09:00;;;;;;;3.60;1.70;;;;;;;;;;769140;182;624670;-55
2022/08/22 08:11:26;;;;;;;4.80;2.20;;;;;;;;;;766535;182;627996;-54
2022/08/22 08:13:52;;;;;;;3.40;2.00;;;;;;;;;;767801;182;627362;-54
2022/08/22 08:16:18;;;;;;;5.13;2.63;;;;;;;;;;767906;182;626147;-53
2022/08/22 08:18:43;;;;;;;5.10;2.30;;;;;;;;;;765494;182;625678;-53
2022/08/22 08:21:09;;;;;;;6.80;2.70;;;;;;;;;;764993;182;634400;-54
2022/08/22 08:23:36;;;;;;;4.87;3.10;;;;;;;;;;764416;182;632921;-54
2022/08/22 08:26:02;;;;;;;5.80;3.20;;;;;;;;;;774978;179;631135;-54
2022/08/22 08:28:33;;;;;;;8.30;3.10;;;;;;;;;;765504;182;631698;-53
2022/08/22 08:31:06;;;;;;;6.37;4.20;;;;;;;;;;764848;182;623625;-54
2022/08/22 08:33:31;;;;;;;5.27;2.90;;;;;;;;;;764380;182;620649;-53
2022/08/22 08:35:56;;;;;;;7.27;3.13;;;;;;;;;;769261;182;635443;-53
2022/08/22 08:38:23;;;;;;;7.07;3.97;;;;;;;;;;766696;182;637111;-53
2022/08/22 08:41:00;;;;;;;6.30;3.20;;;;;;;;;;763297;182;619151;-54
2022/08/22 08:43:33;;;;;;;6.53;3.63;;;;;;;;;;765657;182;633318;-54
2022/08/22 08:46:14;;;;;;;6.70;3.20;;;;;;;;;;771106;182;620067;-54
2022/08/22 08:48:46;;;;;;;5.90;2.60;;;;;;;;;;769042;182;620618;-54
2022/08/22 08:51:26;;;;;;;5.87;2.90;;;;;;;;;;762851;182;621608;-53
2022/08/22 08:53:52;;;;;;;7.07;3.70;;;;;;;;;;764391;182;619970;-54
2022/08/22 08:56:18;;;;;;;4.97;3.30;;;;;;;;;;767580;180;620481;-54
2022/08/22 08:58:45;;;;;;;8.03;3.73;;;;;;;;;;769375;182;618377;-55
2022/08/22 09:01:16;;;;;;;4.20;2.77;;;;;;;;;;775737;179;626996;-55
2022/08/22 09:03:45;;;;;;;6.80;4.20;;;;;;;;;;766125;182;619548;-54
2022/08/22 09:06:15;;;;;;;8.37;3.57;;;;;;;;;;763873;182;629841;-54
2022/08/22 09:08:45;;;;;;;7.80;4.60;;;;;;;;;;763663;182;616781;-54
2022/08/22 09:11:21;;;;;;;8.60;3.70;;;;;;;;;;767646;182;625159;-53
2022/08/22 09:14:01;;;;;;;9.77;4.27;;;;;;;;;;763705;185;613288;-52
2022/08/22 09:16:28;;;;;;;10.30;4.57;;;;;;;;;;764615;182;615462;-53
2022/08/22 09:18:53;;;;;;;12.80;4.23;;;;;;;;;;762999;182;617102;-54
2022/08/22 09:21:19;;;;;;;12.33;4.93;;;;;;;;;;764872;182;634357;-53
2022/08/22 09:24:00;;;;;;;11.50;4.40;;;;;;;;;;769944;182;635912;-54
2022/08/22 09:26:42;;;;;;;10.03;4.70;;;;;;;;;;762719;182;630457;-53
2022/08/22 09:29:14;;;;;;;10.30;5.30;;;;;;;;;;762652;186;623604;-54
2022/08/22 09:31:40;;;;;;;7.97;3.30;;;;;;;;;;764690;182;620920;-54
2022/08/22 09:34:10;;;;;;;15.93;4.87;;;;;;;;;;764006;183;629460;-54
2022/08/22 09:36:36;;;;;;;8.33;4.03;;;;;;;;;;763931;182;623772;-54
2022/08/22 09:39:04;;;;;;;14.23;5.30;;;;;;;;;;767506;182;614910;-54
2022/08/22 09:41:36;;;;;;;10.13;4.50;;;;;;;;;;764161;182;626566;-54
2022/08/22 09:44:04;;;;;;;13.33;5.03;;;;;;;;;;768460;182;634167;-55
2022/08/22 09:46:31;;;;;;;8.70;5.17;;;;;;;;;;764182;182;619070;-55
2022/08/22 09:49:03;;;;;;;11.37;4.67;;;;;;;;;;773504;182;627059;-54
2022/08/22 09:51:46;;;;;;;8.03;3.90;;;;;;;;;;764368;182;629919;-54
2022/08/22 09:54:12;;;;;;;11.20;5.10;;;;;;;;;;757908;183;630099;-54
2022/08/22 09:56:39;;;;;;;12.73;6.20;;;;;;;;;;766091;182;627041;-54
2022/08/22 09:59:05;;;;;;;9.68;4.62;;;;;;;;;;767742;179;633824;-55
2022/08/22 10:01:33;;;;;;;12.80;5.60;;;;;;;;;;777451;179;628461;-54
2022/08/22 10:04:02;;;;;;;9.50;5.60;;;;;;;;;;765246;182;624894;-54
2022/08/22 10:06:28;;;;;;;9.43;4.67;;;;;;;;;;764686;182;623221;-54
2022/08/22 10:08:55;;;;;;;14.23;5.10;;;;;;;;;;772868;180;627137;-54
2022/08/22 10:11:24;;;;;;;10.23;5.37;;;;;;;;;;766199;182;625286;-54
2022/08/22 10:13:54;;;;;;;9.90;5.40;;;;;;;;;;764153;182;616553;-54
2022/08/22 10:16:18;;;;;;;10.57;4.90;;;;;;;;;;764450;182;626964;-54
2022/08/22 10:18:45;;;;;;;15.83;6.27;;;;;;;;;;769040;182;616225;-54
2022/08/22 10:21:11;;;;;;;10.20;5.40;;;;;;;;;;768256;182;617728;-53
2022/08/22 10:23:38;;;;;;;10.33;5.37;;;;;;;;;;764958;182;649956;-54
2022/08/22 10:26:04;;;;;;;9.60;5.67;;;;;;;;;;767255;182;618791;-54
2022/08/22 10:28:30;;;;;;;11.73;5.07;;;;;;;;;;764475;183;620253;-55
2022/08/22 10:31:09;;;;;;;11.10;4.77;;;;;;;;;;763893;182;633068;-54
2022/08/22 10:33:41;;;;;;;8.70;5.00;;;;;;;;;;766311;182;618034;-54
2022/08/22 10:36:07;;;;;;;10.50;5.67;;;;;;;;;;762603;182;628616;-55
2022/08/22 10:38:39;;;;;;;9.53;6.00;;;;;;;;;;770377;182;628557;-54
2022/08/22 10:41:06;;;;;;;9.80;5.70;;;;;;;;;;768422;182;633893;-54
2022/08/22 10:43:50;;;;;;;9.23;4.40;;;;;;;;;;764370;182;631109;-54
2022/08/22 10:46:15;;;;;;;12.37;6.43;;;;;;;;;;766106;182;636494;-54
2022/08/22 10:48:44;;;;;;;10.90;5.40;;;;;;;;;;766614;182;628056;-55
2022/08/22 10:51:15;;;;;;;12.43;5.17;;;;;;;;;;768012;182;622042;-53
2022/08/22 10:53:44;;;;;;;10.97;5.43;;;;;;;;;;763126;182;642908;-54
2022/08/22 10:56:12;;;;;;;11.97;5.97;;;;;;;;;;762850;182;635928;-54
2022/08/22 10:58:38;;;;;;;13.47;5.90;;;;;;;;;;764170;182;623707;-54
2022/08/22 11:01:04;;;;;;;11.70;5.20;;;;;;;;;;765811;182;628199;-54
2022/08/22 11:03:34;;;;;;;14.43;5.33;;;;;;;;;;767992;182;634971;-54
2022/08/22 11:06:00;;;;;;;11.10;5.07;;;;;;;;;;768360;182;631628;-54
2022/08/22 11:08:27;;;;;;;11.37;5.17;;;;;;;;;;769956;182;624992;-56
2022/08/22 11:11:08;;;;;;;12.10;4.80;;;;;;;;;;767745;182;626633;-56
2022/08/22 11:13:45;;;;;;;10.17;5.20;;;;;;;;;;763839;183;628149;-55
2022/08/22 11:16:12;;;;;;;9.13;5.03;;;;;;;;;;764769;182;626069;-56
2022/08/22 11:18:48;;;;;;;13.80;6.07;;;;;;;;;;763875;181;622138;-56
2022/08/22 11:21:31;;;;;;;9.70;5.10;;;;;;;;;;765596;181;617699;-54
2022/08/22 11:23:57;;;;;;;12.57;5.17;;;;;;;;;;758080;182;626515;-56
2022/08/22 11:26:41;;;;;;;9.20;4.40;;;;;;;;;;764342;182;629136;-56
2022/08/22 11:29:09;;;;;;;7.13;4.17;;;;;;;;;;767794;182;627050;-56
2022/08/22 11:31:53;;;;;;;7.03;4.90;;;;;;;;;;764847;182;614038;-55
2022/08/22 11:34:33;;;;;;;15.10;4.97;;;;;;;;;;763133;182;627238;-55
2022/08/22 11:37:00;;;;;;;7.23;4.63;;;;;;;;;;765111;182;627177;-56
2022/08/22 11:39:27;;;;;;;6.83;3.90;;;;;;;;;;766364;182;636893;-55
2022/08/22 11:42:07;;;;;;;7.10;3.90;;;;;;;;;;765612;182;619099;-57
2022/08/22 11:44:33;;;;;;;6.00;3.90;;;;;;;;;;767401;182;620300;-57
2022/08/22 11:47:00;;;;;;;6.40;3.47;;;;;;;;;;756566;186;617817;-55
2022/08/22 11:49:29;;;;;;;7.03;3.80;;;;;;;;;;766242;182;622551;-56
2022/08/22 11:52:13;;;;;;;7.07;3.80;;;;;;;;;;768590;182;628984;-55
2022/08/22 11:54:54;;;;;;;8.00;4.13;;;;;;;;;;767510;182;630087;-55
2022/08/22 11:57:24;;;;;;;5.40;3.47;;;;;;;;;;755631;184;637327;-55
2022/08/22 11:59:51;;;;;;;9.77;3.90;;;;;;;;;;767818;183;640686;-55
2022/08/22 12:02:18;;;;;;;9.40;3.73;;;;;;;;;;773007;183;630060;-56
2022/08/22 12:04:46;;;;;;;6.07;3.70;;;;;;;;;;764808;182;626160;-56
2022/08/22 12:07:11;;;;;;;7.23;3.67;;;;;;;;;;763364;182;624076;-57
2022/08/22 12:09:38;;;;;;;7.20;3.70;;;;;;;;;;770836;182;626814;-56
2022/08/22 12:12:20;;;;;;;8.77;3.60;;;;;;;;;;766555;182;629088;-56
2022/08/22 12:14:48;;;;;;;4.83;3.20;;;;;;;;;;760481;183;632968;-56
2022/08/22 12:17:18;;;;;;;10.37;3.60;;;;;;;;;;760879;183;667397;-55
2022/08/22 12:19:50;;;;;;;8.47;4.33;;;;;;;;;;764697;182;630995;-55
2022/08/22 12:22:33;;;;;;;15.67;7.93;;;;;;;;;;767047;182;623289;-54
2022/08/22 12:25:00;;;;;;;9.10;5.50;;;;;;;;;;756782;184;617884;-56
2022/08/22 12:27:26;;;;;;;11.60;6.03;;;;;;;;;;759400;184;633459;-56
2022/08/22 12:30:03;;;;;;;18.03;9.07;;;;;;;;;;762385;183;627543;-55
2022/08/22 12:32:32;;;;;;;8.13;4.63;;;;;;;;;;769028;182;619042;-56
2022/08/22 12:35:12;;;;;;;6.80;5.27;;;;;;;;;;772702;182;624648;-56
2022/08/22 12:37:43;;;;;;;11.20;4.40;;;;;;;;;;766041;183;633343;-55
2022/08/22 12:40:10;;;;;;;8.60;5.00;;;;;;;;;;768812;183;632613;-57
2022/08/22 12:42:38;;;;;;;9.80;4.00;;;;;;;;;;763591;182;636989;-57
2022/08/22 12:45:07;;;;;;;10.07;4.50;;;;;;;;;;767674;182;619524;-56
2022/08/22 12:47:36;;;;;;;7.80;4.10;;;;;;;;;;771729;182;618912;-56
2022/08/22 12:50:12;;;;;;;10.57;3.90;;;;;;;;;;761101;182;626860;-56
2022/08/22 12:52:41;;;;;;;10.53;4.83;;;;;;;;;;765809;182;642373;-56
2022/08/22 12:55:22;;;;;;;13.77;4.40;;;;;;;;;;765383;182;622518;-57
2022/08/22 12:57:49;;;;;;;9.30;4.63;;;;;;;;;;767967;182;626949;-56
2022/08/22 13:00:17;;;;;;;9.63;3.87;;;;;;;;;;766046;182;643070;-57
2022/08/22 13:02:43;;;;;;;8.50;4.87;;;;;;;;;;767797;182;622485;-56
2022/08/22 13:05:12;;;;;;;11.77;5.87;;;;;;;;;;760578;182;624901;-56
2022/08/22 13:07:38;;;;;;;9.73;4.97;;;;;;;;;;764264;183;634762;-55
2022/08/22 13:10:23;;;;;;;9.53;4.90;;;;;;;;;;770471;182;616877;-55
2022/08/22 13:12:49;;;;;;;9.03;4.83;;;;;;;;;;762620;183;632258;-56
2022/08/22 13:15:35;;;;;;;10.87;5.17;;;;;;;;;;767014;182;627061;-56
2022/08/22 13:18:01;;;;;;;12.20;6.10;;;;;;;;;;769774;182;631571;-56
2022/08/22 13:20:27;;;;;;;8.67;5.13;;;;;;;;;;764239;183;635927;-56
2022/08/22 13:22:53;;;;;;;16.63;6.37;;;;;;;;;;758041;182;645843;-56
2022/08/22 13:25:28;;;;;;;13.67;6.80;;;;;;;;;;770552;182;619882;-57
2022/08/22 13:27:54;;;;;;;13.27;6.47;;;;;;;;;;767126;183;609331;-56
2022/08/22 13:30:22;;;;;;;10.23;6.57;;;;;;;;;;766566;182;616738;-55
2022/08/22 13:32:48;;;;;;;16.37;7.40;;;;;;;;;;764112;182;618967;-56
2022/08/22 13:35:19;;;;;;;14.50;6.63;;;;;;;;;;768461;183;629612;-56
2022/08/22 13:37:45;;;;;;;12.97;7.37;;;;;;;;;;767692;182;629605;-55
2022/08/22 13:40:12;;;;;;;12.60;6.77;;;;;;;;;;766006;182;621990;-56
2022/08/22 13:42:38;;;;;;;18.90;8.43;;;;;;;;;;764695;181;625060;-57
2022/08/22 13:45:05;;;;;;;17.53;8.77;;;;;;;;;;776741;182;620698;-61
2022/08/22 13:47:31;;;;;;;15.67;7.70;;;;;;;;;;761122;182;622128;-55
2022/08/22 13:50:02;;;;;;;12.40;7.60;;;;;;;;;;767994;182;643967;-56
2022/08/22 13:52:34;;;;;;;14.50;7.93;;;;;;;;;;768804;182;618512;-55
2022/08/22 13:55:02;;;;;;;16.87;8.10;;;;;;;;;;772064;182;621738;-56
2022/08/22 13:57:28;;;;;;;13.63;8.17;;;;;;;;;;764190;182;623499;-57
2022/08/22 13:59:58;;;;;;;16.47;8.33;;;;;;;;;;764375;182;629060;-57
2022/08/22 14:02:26;;;;;;;17.13;9.33;;;;;;;;;;769305;182;620455;-56
2022/08/22 14:04:52;;;;;;;17.00;8.77;;;;;;;;;;765134;185;619915;-55
2022/08/22 14:07:18;;;;;;;21.03;9.00;;;;;;;;;;765710;182;626334;-56
2022/08/22 14:09:50;;;;;;;22.33;10.70;;;;;;;;;;766906;182;619420;-55
2022/08/22 14:12:16;;;;;;;17.17;8.20;;;;;;;;;;767565;182;627062;-56
2022/08/22 14:14:42;;;;;;;27.97;11.97;;;;;;;;;;763777;182;627927;-55
2022/08/22 14:17:08;;;;;;;16.80;10.30;;;;;;;;;;764815;182;627735;-57
2022/08/22 14:19:34;;;;;;;23.97;8.73;;;;;;;;;;764384;182;632067;-56
2022/08/22 14:22:00;;;;;;;22.83;11.50;;;;;;;;;;760425;186;620086;-55
2022/08/22 14:24:27;;;;;;;20.03;11.93;;;;;;;;;;767274;182;618982;-56
2022/08/22 14:26:52;;;;;;;24.30;11.07;;;;;;;;;;765076;182;625337;-57
2022/08/22 14:29:18;;;;;;;20.37;10.73;;;;;;;;;;767325;183;629013;-56
2022/08/22 14:31:50;;;;;;;19.73;11.00;;;;;;;;;;761391;182;627942;-56
2022/08/22 14:34:16;;;;;;;24.60;14.27;;;;;;;;;;767560;182;617232;-56
2022/08/22 14:36:42;;;;;;;28.77;15.37;;;;;;;;;;768075;182;623973;-55
2022/08/22 14:39:08;;;;;;;29.67;17.10;;;;;;;;;;759390;186;627145;-57
2022/08/22 14:41:36;;;;;;;20.30;13.57;;;;;;;;;;767627;182;631888;-56